Time;durP1;ratioP1;P1;durP2;ratioP2;P2;SDS_P1;SDS_P2;PMS_P1;PMS_P2;Temp;Humidity;BMP_temperature;BMP_pressure;BME280_temperature;BME280_humidity;BME280_pressure;Samples;Min_cycle;Max_cycle;Signal;HPM_P1;HPM_P2
2021/03/12 00:01:04;;;;;;;24.45;16.45;;;;;;;;;;10484036;27;20448;-63
2021/03/12 00:06:04;;;;;;;23.17;15.55;;;;;;;;;;10481149;27;20070;-64
2021/03/12 00:11:01;;;;;;;20.85;14.05;;;;;;;;;;10480821;27;20087;-64
2021/03/12 00:15:59;;;;;;;19.52;14.48;;;;;;;;;;10463520;27;20510;-64
2021/03/12 00:20:57;;;;;;;21.58;14.23;;;;;;;;;;10485785;27;20081;-63
2021/03/12 00:25:55;;;;;;;21.00;13.63;;;;;;;;;;10466431;27;20042;-64
2021/03/12 00:30:52;;;;;;;24.77;15.50;;;;;;;;;;10484795;27;20058;-64
2021/03/12 00:35:50;;;;;;;22.85;16.08;;;;;;;;;;10484636;27;20404;-64
2021/03/12 00:40:50;;;;;;;24.48;15.95;;;;;;;;;;10465398;27;20094;-63
2021/03/12 00:45:50;;;;;;;19.83;15.02;;;;;;;;;;10465623;27;20499;-64
2021/03/12 00:50:50;;;;;;;19.10;14.27;;;;;;;;;;10465162;27;20058;-64
2021/03/12 00:55:54;;;;;;;25.08;15.20;;;;;;;;;;10464180;27;20047;-64
2021/03/12 01:00:53;;;;;;;19.42;14.68;;;;;;;;;;10464765;27;20046;-64
2021/03/12 01:05:56;;;;;;;19.35;15.18;;;;;;;;;;10464943;27;20411;-64
2021/03/12 01:11:01;;;;;;;;;;;;;;;;;;10465182;27;20412;-64
2021/03/12 01:16:01;;;;;;;19.42;13.82;;;;;;;;;;10464389;27;19919;-64
2021/03/12 01:21:01;;;;;;;21.08;15.10;;;;;;;;;;10463901;27;20589;-64
2021/03/12 01:25:59;;;;;;;21.40;15.57;;;;;;;;;;10464249;27;20038;-64
2021/03/12 01:31:06;;;;;;;18.55;14.23;;;;;;;;;;10464005;27;20066;-64
2021/03/12 01:36:15;;;;;;;18.67;14.80;;;;;;;;;;10464371;27;20054;-63
2021/03/12 01:41:34;;;;;;;22.20;13.95;;;;;;;;;;10463731;27;20054;-64
2021/03/12 01:46:42;;;;;;;20.65;15.63;;;;;;;;;;10463383;27;20077;-64
2021/03/12 01:51:40;;;;;;;20.33;15.23;;;;;;;;;;10463418;27;20054;-64
2021/03/12 01:56:38;;;;;;;20.98;15.00;;;;;;;;;;10463080;27;20408;-64
2021/03/12 02:01:44;;;;;;;20.17;13.20;;;;;;;;;;10463220;27;20511;-63
2021/03/12 02:07:06;;;;;;;18.90;12.82;;;;;;;;;;10469880;27;20459;-63
2021/03/12 02:12:21;;;;;;;19.48;14.82;;;;;;;;;;10471420;27;20495;-63
2021/03/12 02:17:23;;;;;;;21.40;14.07;;;;;;;;;;10490068;27;20077;-63
2021/03/12 02:22:23;;;;;;;20.27;13.55;;;;;;;;;;10471060;27;20050;-63
2021/03/12 02:27:25;;;;;;;22.10;14.05;;;;;;;;;;10470585;27;20047;-64
2021/03/12 02:32:27;;;;;;;23.73;15.45;;;;;;;;;;10488057;27;20470;-63
2021/03/12 02:37:24;;;;;;;18.95;13.18;;;;;;;;;;10470039;27;20522;-64
2021/03/12 02:42:25;;;;;;;18.77;13.95;;;;;;;;;;10470678;27;20439;-64
2021/03/12 02:47:27;;;;;;;20.88;14.43;;;;;;;;;;10487460;27;20460;-64
2021/03/12 02:52:28;;;;;;;21.05;16.42;;;;;;;;;;10469147;27;20046;-64
2021/03/12 02:57:27;;;;;;;18.13;12.80;;;;;;;;;;10487931;27;20085;-64
2021/03/12 03:02:28;;;;;;;19.50;15.48;;;;;;;;;;10469226;27;20533;-64
2021/03/12 03:07:41;;;;;;;17.70;13.15;;;;;;;;;;10469144;27;20050;-64
2021/03/12 03:12:41;;;;;;;18.35;13.68;;;;;;;;;;10469645;27;20061;-63
2021/03/12 03:17:40;;;;;;;21.15;13.40;;;;;;;;;;10467777;27;20054;-64
2021/03/12 03:22:38;;;;;;;21.27;14.07;;;;;;;;;;10468669;27;20054;-64
2021/03/12 03:27:38;;;;;;;17.88;13.18;;;;;;;;;;10469132;27;20500;-64
2021/03/12 03:32:36;;;;;;;18.75;14.48;;;;;;;;;;10487368;27;20411;-64
2021/03/12 03:37:34;;;;;;;19.90;12.90;;;;;;;;;;10468212;27;20114;-64
2021/03/12 03:42:32;;;;;;;18.05;13.70;;;;;;;;;;10485870;27;20062;-64
2021/03/12 03:47:30;;;;;;;20.80;15.63;;;;;;;;;;10468124;27;20049;-64
2021/03/12 03:52:29;;;;;;;18.95;14.23;;;;;;;;;;10466876;27;20522;-63
2021/03/12 03:57:32;;;;;;;20.60;14.52;;;;;;;;;;10467065;27;20054;-63
2021/03/12 04:02:30;;;;;;;20.75;14.32;;;;;;;;;;10466814;27;20050;-63
2021/03/12 04:07:29;;;;;;;18.02;13.27;;;;;;;;;;10467013;27;20518;-63
2021/03/12 04:12:27;;;;;;;18.23;13.35;;;;;;;;;;10466949;27;20537;-63
2021/03/12 04:17:29;;;;;;;18.60;13.98;;;;;;;;;;10465907;27;20496;-63
2021/03/12 04:22:27;;;;;;;24.35;14.40;;;;;;;;;;10484146;27;20071;-63
2021/03/12 04:27:27;;;;;;;19.25;14.02;;;;;;;;;;10466040;27;20047;-62
2021/03/12 04:32:25;;;;;;;33.50;17.88;;;;;;;;;;10466568;27;20054;-63
2021/03/12 04:37:24;;;;;;;23.73;14.50;;;;;;;;;;10484297;27;20038;-64
2021/03/12 04:42:22;;;;;;;28.58;19.70;;;;;;;;;;10462459;27;20047;-63
2021/03/12 04:47:35;;;;;;;43.90;29.25;;;;;;;;;;10479640;27;20074;-63
2021/03/12 04:52:33;;;;;;;41.08;26.90;;;;;;;;;;10483763;27;20045;-63
2021/03/12 04:57:30;;;;;;;74.75;40.30;;;;;;;;;;10464410;27;20069;-63
2021/03/12 05:02:28;;;;;;;39.65;23.50;;;;;;;;;;10463519;27;20046;-63
2021/03/12 05:07:33;;;;;;;49.53;34.40;;;;;;;;;;10464334;27;20050;-63
2021/03/12 05:12:44;;;;;;;35.45;23.02;;;;;;;;;;10463770;27;20047;-63
2021/03/12 05:17:58;;;;;;;69.65;42.63;;;;;;;;;;10464471;27;20046;-63
2021/03/12 05:22:58;;;;;;;64.13;38.50;;;;;;;;;;10464598;27;20046;-63
2021/03/12 05:27:55;;;;;;;107.07;65.70;;;;;;;;;;10463976;27;20050;-61
2021/03/12 05:32:54;;;;;;;83.70;51.58;;;;;;;;;;10463523;27;20047;-63
2021/03/12 05:37:52;;;;;;;65.97;40.85;;;;;;;;;;10463749;27;20070;-63
2021/03/12 05:42:55;;;;;;;41.63;25.73;;;;;;;;;;10463415;27;20055;-61
2021/03/12 05:47:53;;;;;;;63.15;41.55;;;;;;;;;;10481096;27;20039;-62
2021/03/12 05:52:51;;;;;;;101.32;63.72;;;;;;;;;;10482225;27;20042;-62
2021/03/12 05:57:51;;;;;;;60.17;37.20;;;;;;;;;;10462868;27;20510;-62
2021/03/12 06:02:50;;;;;;;69.35;39.70;;;;;;;;;;10481802;27;20423;-64
2021/03/12 06:08:04;;;;;;;111.03;38.85;;;;;;;;;;10462887;27;20043;-62
2021/03/12 06:13:04;;;;;;;98.15;33.30;;;;;;;;;;10463307;27;20051;-62
2021/03/12 06:18:16;;;;;;;62.45;29.05;;;;;;;;;;10481396;27;20490;-62
2021/03/12 06:23:33;;;;;;;33.42;20.20;;;;;;;;;;10462479;27;20054;-62
2021/03/12 06:28:36;;;;;;;56.00;26.83;;;;;;;;;;10462624;27;20050;-63
2021/03/12 06:33:46;;;;;;;64.40;33.10;;;;;;;;;;10462528;27;20468;-62
2021/03/12 06:38:56;;;;;;;44.92;29.33;;;;;;;;;;10481359;27;20447;-62
2021/03/12 06:44:25;;;;;;;57.25;34.28;;;;;;;;;;10483426;27;20050;-62
2021/03/12 06:49:23;;;;;;;52.45;32.22;;;;;;;;;;10462247;27;20051;-61
2021/03/12 06:54:52;;;;;;;46.10;31.92;;;;;;;;;;10469438;27;20151;-62
2021/03/12 06:59:58;;;;;;;35.95;22.83;;;;;;;;;;10469821;27;20058;-62
2021/03/12 07:04:56;;;;;;;25.25;19.42;;;;;;;;;;10469280;27;20046;-63
2021/03/12 07:10:10;;;;;;;58.67;37.42;;;;;;;;;;10494158;27;20055;-62
2021/03/12 07:15:25;;;;;;;35.55;23.13;;;;;;;;;;10469340;27;20046;-62
2021/03/12 07:20:46;;;;;;;35.92;26.08;;;;;;;;;;10480666;27;20089;-63
2021/03/12 07:25:48;;;;;;;54.90;37.88;;;;;;;;;;10469321;27;20535;-62
2021/03/12 07:30:49;;;;;;;26.00;16.98;;;;;;;;;;10468541;27;20046;-63
2021/03/12 07:35:49;;;;;;;44.40;31.05;;;;;;;;;;10468986;27;20065;-62
2021/03/12 07:41:01;;;;;;;50.55;35.85;;;;;;;;;;10467729;27;20090;-64
2021/03/12 07:46:13;;;;;;;21.80;14.35;;;;;;;;;;10468138;27;20047;-63
2021/03/12 07:51:26;;;;;;;38.15;32.85;;;;;;;;;;10468128;27;20401;-63
2021/03/12 07:56:50;;;;;;;31.60;21.58;;;;;;;;;;10468157;27;20073;-63
2021/03/12 08:02:18;;;;;;;25.38;19.10;;;;;;;;;;10474020;27;20089;-64
2021/03/12 08:07:38;;;;;;;65.40;34.25;;;;;;;;;;10478978;27;20555;-63
2021/03/12 08:12:42;;;;;;;38.35;21.67;;;;;;;;;;10484947;27;20513;-64
2021/03/12 08:18:16;;;;;;;29.65;19.05;;;;;;;;;;10466759;27;20073;-64
2021/03/12 08:23:32;;;;;;;44.75;23.30;;;;;;;;;;10462532;27;20055;-63
2021/03/12 08:28:34;;;;;;;35.83;23.58;;;;;;;;;;10466430;27;20051;-62
2021/03/12 08:33:54;;;;;;;57.25;36.47;;;;;;;;;;10475965;27;20058;-62
2021/03/12 08:39:28;;;;;;;33.60;24.63;;;;;;;;;;10466576;27;20483;-63
2021/03/12 08:44:55;;;;;;;39.25;23.80;;;;;;;;;;10485168;27;20431;-63
2021/03/12 08:50:09;;;;;;;36.28;25.08;;;;;;;;;;10485059;27;20038;-63
2021/03/12 08:55:15;;;;;;;22.90;16.38;;;;;;;;;;10465977;27;20051;-63
2021/03/12 09:00:14;;;;;;;44.30;28.55;;;;;;;;;;10483806;27;20078;-63
2021/03/12 09:05:34;;;;;;;33.80;20.58;;;;;;;;;;10471009;27;20073;-63
2021/03/12 09:10:49;;;;;;;30.45;23.42;;;;;;;;;;10484374;27;20448;-63
2021/03/12 09:15:57;;;;;;;26.83;19.80;;;;;;;;;;10483075;27;20079;-63
2021/03/12 09:21:17;;;;;;;25.98;20.80;;;;;;;;;;10464301;27;20085;-63
2021/03/12 09:26:17;;;;;;;19.98;14.68;;;;;;;;;;10464838;27;20470;-63
2021/03/12 09:31:25;;;;;;;23.70;17.73;;;;;;;;;;10464460;27;20051;-63
2021/03/12 09:36:28;;;;;;;28.05;20.02;;;;;;;;;;10464426;27;20050;-62
2021/03/12 09:41:29;;;;;;;23.23;18.27;;;;;;;;;;10463850;27;20090;-62
2021/03/12 09:46:29;;;;;;;19.75;14.90;;;;;;;;;;10464199;27;20192;-63
2021/03/12 09:51:32;;;;;;;46.80;30.35;;;;;;;;;;10464267;27;20043;-63
2021/03/12 09:56:32;;;;;;;29.42;20.98;;;;;;;;;;10463378;27;20492;-64
2021/03/12 10:01:35;;;;;;;36.10;19.83;;;;;;;;;;10463774;27;20057;-62
2021/03/12 10:06:54;;;;;;;68.15;37.55;;;;;;;;;;10463456;27;20059;-64
2021/03/12 10:11:53;;;;;;;28.23;20.55;;;;;;;;;;10463656;27;20051;-63
2021/03/12 10:17:16;;;;;;;28.85;22.67;;;;;;;;;;10463205;27;20055;-63
2021/03/12 10:22:19;;;;;;;35.15;21.27;;;;;;;;;;10463307;27;20085;-62
2021/03/12 10:27:21;;;;;;;31.65;20.65;;;;;;;;;;10486735;27;20424;-63
2021/03/12 10:32:21;;;;;;;30.30;22.50;;;;;;;;;;10489126;27;20073;-62
2021/03/12 10:37:20;;;;;;;33.17;22.75;;;;;;;;;;10488747;27;20043;-62
2021/03/12 10:42:26;;;;;;;45.70;30.35;;;;;;;;;;10488018;27;20089;-62
2021/03/12 10:47:23;;;;;;;116.05;64.72;;;;;;;;;;10488320;27;20051;-62
2021/03/12 10:52:25;;;;;;;26.67;20.90;;;;;;;;;;10488599;27;20042;-63
2021/03/12 10:57:36;;;;;;;45.20;31.63;;;;;;;;;;10489192;27;20046;-64
2021/03/12 11:02:35;;;;;;;56.00;32.40;;;;;;;;;;10488595;27;20069;-62
2021/03/12 11:07:35;;;;;;;29.05;20.63;;;;;;;;;;10488515;27;20043;-62
2021/03/12 11:12:36;;;;;;;30.98;25.30;;;;;;;;;;10487604;27;20499;-62
2021/03/12 11:17:34;;;;;;;52.80;38.63;;;;;;;;;;10486769;27;20047;-62
2021/03/12 11:22:39;;;;;;;23.95;18.92;;;;;;;;;;10486695;27;20490;-62
2021/03/12 11:27:37;;;;;;;27.70;22.45;;;;;;;;;;10487532;27;20046;-63
2021/03/12 11:32:35;;;;;;;27.58;21.48;;;;;;;;;;10486968;27;20062;-63
2021/03/12 11:37:33;;;;;;;22.75;18.80;;;;;;;;;;10486322;27;20047;-63
2021/03/12 11:42:30;;;;;;;25.23;18.50;;;;;;;;;;10485744;27;20093;-63
2021/03/12 11:47:28;;;;;;;19.58;16.75;;;;;;;;;;10486659;27;20408;-63
2021/03/12 11:52:26;;;;;;;25.15;19.20;;;;;;;;;;10486534;27;20539;-63
2021/03/12 11:57:23;;;;;;;22.95;16.50;;;;;;;;;;10485773;27;20097;-63
2021/03/12 12:02:21;;;;;;;25.00;18.17;;;;;;;;;;10485458;27;20089;-64
2021/03/12 12:07:19;;;;;;;29.80;21.20;;;;;;;;;;10467098;27;20042;-62
2021/03/12 12:12:16;;;;;;;29.33;22.17;;;;;;;;;;10485076;27;20047;-62
2021/03/12 12:17:14;;;;;;;28.23;21.42;;;;;;;;;;10485023;27;20062;-63
2021/03/12 12:22:12;;;;;;;37.75;24.63;;;;;;;;;;10486229;27;20074;-62
2021/03/12 12:27:12;;;;;;;20.42;16.35;;;;;;;;;;10485367;27;20042;-63
2021/03/12 12:32:09;;;;;;;23.48;17.55;;;;;;;;;;10483684;27;20507;-63
2021/03/12 12:37:08;;;;;;;27.67;18.38;;;;;;;;;;10485363;27;20058;-63
2021/03/12 12:42:06;;;;;;;31.95;22.73;;;;;;;;;;10484872;27;20492;-62
2021/03/12 12:47:04;;;;;;;39.80;25.73;;;;;;;;;;10484884;27;20046;-63
2021/03/12 12:52:03;;;;;;;49.22;29.65;;;;;;;;;;10483269;27;20093;-63
2021/03/12 12:57:00;;;;;;;21.42;15.65;;;;;;;;;;10483804;27;20401;-63
2021/03/12 13:01:57;;;;;;;25.55;18.10;;;;;;;;;;10484209;27;20086;-61
2021/03/12 13:06:56;;;;;;;27.60;18.10;;;;;;;;;;10484007;27;20202;-62
2021/03/12 13:11:53;;;;;;;129.98;84.15;;;;;;;;;;10484429;27;20436;-63
2021/03/12 13:16:50;;;;;;;76.97;49.33;;;;;;;;;;10484282;27;20049;-63
2021/03/12 13:21:48;;;;;;;25.45;21.02;;;;;;;;;;10484178;27;20070;-63
2021/03/12 13:26:46;;;;;;;65.53;38.90;;;;;;;;;;10484083;27;20412;-63
2021/03/12 13:31:43;;;;;;;37.72;26.23;;;;;;;;;;10483912;27;20038;-63
2021/03/12 13:36:41;;;;;;;44.42;29.90;;;;;;;;;;10483888;27;20038;-63
2021/03/12 13:41:39;;;;;;;33.58;23.88;;;;;;;;;;10476587;27;20081;-63
2021/03/12 13:46:37;;;;;;;32.40;21.58;;;;;;;;;;10453637;27;20465;-62
2021/03/12 13:51:35;;;;;;;32.95;25.00;;;;;;;;;;10452479;27;20514;-62
2021/03/12 13:56:32;;;;;;;29.88;22.20;;;;;;;;;;10457683;27;20039;-62
2021/03/12 14:01:30;;;;;;;49.88;33.63;;;;;;;;;;10450903;27;20526;-63
2021/03/12 14:06:29;;;;;;;176.77;98.47;;;;;;;;;;10435180;27;20473;-63
2021/03/12 14:11:26;;;;;;;56.03;33.42;;;;;;;;;;10477602;27;20035;-64
2021/03/12 14:16:23;;;;;;;80.45;48.47;;;;;;;;;;10490854;27;20049;-64
2021/03/12 14:21:25;;;;;;;77.82;45.40;;;;;;;;;;10464706;27;20074;-63
2021/03/12 14:26:23;;;;;;;60.47;37.45;;;;;;;;;;10448952;27;20050;-65
2021/03/12 14:31:39;;;;;;;320.30;137.35;;;;;;;;;;10451165;27;20076;-63
2021/03/12 14:36:38;;;;;;;413.63;231.52;;;;;;;;;;10429023;27;20046;-63
2021/03/12 14:41:36;;;;;;;84.93;47.35;;;;;;;;;;10447541;27;20090;-63
2021/03/12 14:46:34;;;;;;;27.95;19.90;;;;;;;;;;10447197;27;20416;-62
2021/03/12 14:51:40;;;;;;;33.85;25.02;;;;;;;;;;10475594;27;20046;-62
2021/03/12 14:56:38;;;;;;;76.38;45.60;;;;;;;;;;10470618;27;20047;-62
2021/03/12 15:01:35;;;;;;;43.88;27.02;;;;;;;;;;10446073;27;20093;-63
2021/03/12 15:06:34;;;;;;;41.45;28.73;;;;;;;;;;10472995;27;20046;-63
2021/03/12 15:11:33;;;;;;;340.30;155.18;;;;;;;;;;10430694;27;20067;-63
2021/03/12 15:16:33;;;;;;;79.38;49.17;;;;;;;;;;10460977;27;20051;-62
2021/03/12 15:21:32;;;;;;;151.45;80.22;;;;;;;;;;10468853;27;20053;-62
2021/03/12 15:26:29;;;;;;;91.97;53.13;;;;;;;;;;10488137;27;20043;-63
2021/03/12 15:31:27;;;;;;;78.82;47.92;;;;;;;;;;10468633;27;20432;-63
2021/03/12 15:36:26;;;;;;;77.22;51.60;;;;;;;;;;10478406;27;20074;-64
2021/03/12 15:41:46;;;;;;;84.20;50.03;;;;;;;;;;10453040;27;20086;-63
2021/03/12 15:46:43;;;;;;;95.43;57.70;;;;;;;;;;10455187;27;20542;-63
2021/03/12 15:51:43;;;;;;;73.07;49.05;;;;;;;;;;10456899;27;20053;-63
2021/03/12 15:56:41;;;;;;;46.35;34.53;;;;;;;;;;10442918;27;20082;-63
2021/03/12 16:01:51;;;;;;;59.47;40.30;;;;;;;;;;10442035;27;20054;-64
2021/03/12 16:06:50;;;;;;;53.20;39.63;;;;;;;;;;10459440;27;20077;-62
2021/03/12 16:11:48;;;;;;;75.28;57.40;;;;;;;;;;10440302;27;20050;-63
2021/03/12 16:16:51;;;;;;;59.53;45.42;;;;;;;;;;10441583;27;20078;-63
2021/03/12 16:22:28;;;;;;;69.05;52.55;;;;;;;;;;10329721;28;20067;-64
2021/03/12 16:27:52;;;;;;;59.75;45.72;;;;;;;;;;10437752;27;20082;-62
2021/03/12 16:32:49;;;;;;;79.30;56.88;;;;;;;;;;10460780;27;20062;-63
2021/03/12 16:38:07;;;;;;;47.50;35.25;;;;;;;;;;10412747;27;20104;-64
2021/03/12 16:43:04;;;;;;;71.20;50.97;;;;;;;;;;10468670;27;20093;-63
2021/03/12 16:48:03;;;;;;;70.78;52.08;;;;;;;;;;10454195;27;20058;-63
2021/03/12 16:53:04;;;;;;;117.97;80.95;;;;;;;;;;10454830;27;20400;-63
2021/03/12 16:58:02;;;;;;;110.22;73.07;;;;;;;;;;10463131;27;20071;-63
2021/03/12 17:03:00;;;;;;;89.05;60.58;;;;;;;;;;10453973;27;20086;-64
2021/03/12 17:08:03;;;;;;;84.70;56.08;;;;;;;;;;10440247;27;20043;-63
2021/03/12 17:13:00;;;;;;;124.63;87.20;;;;;;;;;;10441682;27;20074;-63
2021/03/12 17:17:59;;;;;;;71.30;53.72;;;;;;;;;;10441703;27;20094;-62
2021/03/12 17:22:56;;;;;;;90.65;58.08;;;;;;;;;;10445427;27;20082;-62
2021/03/12 17:27:54;;;;;;;98.90;56.50;;;;;;;;;;10437067;27;20046;-64
2021/03/12 17:32:51;;;;;;;91.13;53.58;;;;;;;;;;10440116;27;20054;-63
2021/03/12 17:37:53;;;;;;;49.28;36.30;;;;;;;;;;10439201;27;20524;-64
2021/03/12 17:42:51;;;;;;;39.58;31.98;;;;;;;;;;10412819;27;20087;-63
2021/03/12 17:47:51;;;;;;;44.13;31.98;;;;;;;;;;10357239;28;20040;-63
2021/03/12 17:52:48;;;;;;;60.00;46.50;;;;;;;;;;10352742;28;20071;-64
2021/03/12 17:57:53;;;;;;;76.88;51.30;;;;;;;;;;10351506;28;20074;-64
2021/03/12 18:02:52;;;;;;;80.63;55.92;;;;;;;;;;10351557;28;20071;-62
2021/03/12 18:07:49;;;;;;;100.35;60.08;;;;;;;;;;10355066;28;20048;-63
2021/03/12 18:12:47;;;;;;;139.52;82.43;;;;;;;;;;10357297;28;20111;-63
2021/03/12 18:17:45;;;;;;;108.45;72.07;;;;;;;;;;10356474;28;20047;-63
2021/03/12 18:22:43;;;;;;;77.03;53.55;;;;;;;;;;10356144;28;20473;-63
2021/03/12 18:27:40;;;;;;;108.05;68.47;;;;;;;;;;10357025;28;20072;-63
2021/03/12 18:32:39;;;;;;;140.95;81.63;;;;;;;;;;10356229;28;20484;-63
2021/03/12 18:37:39;;;;;;;79.80;50.78;;;;;;;;;;10356564;28;20086;-63
2021/03/12 18:42:36;;;;;;;56.28;43.95;;;;;;;;;;10402924;28;20086;-63
2021/03/12 18:47:34;;;;;;;50.78;36.30;;;;;;;;;;10442434;27;20566;-63
2021/03/12 18:52:32;;;;;;;55.45;45.45;;;;;;;;;;10447099;27;20526;-63
2021/03/12 18:57:30;;;;;;;59.20;44.08;;;;;;;;;;10446775;27;20043;-63
2021/03/12 19:02:27;;;;;;;60.70;41.28;;;;;;;;;;10445672;27;20472;-63
2021/03/12 19:07:25;;;;;;;50.17;33.55;;;;;;;;;;10446495;27;20164;-63
2021/03/12 19:12:22;;;;;;;51.40;35.15;;;;;;;;;;10446281;27;20046;-63
2021/03/12 19:17:21;;;;;;;83.88;47.25;;;;;;;;;;10446251;27;20050;-63
2021/03/12 19:22:18;;;;;;;75.40;45.70;;;;;;;;;;10445818;27;20085;-63
2021/03/12 19:27:15;;;;;;;88.05;51.25;;;;;;;;;;10446786;27;20047;-63
2021/03/12 19:32:13;;;;;;;132.45;65.78;;;;;;;;;;10445795;27;20408;-63
2021/03/12 19:37:11;;;;;;;62.55;40.38;;;;;;;;;;10446405;27;20039;-63
2021/03/12 19:42:10;;;;;;;53.53;36.38;;;;;;;;;;10444971;27;20090;-63
2021/03/12 19:47:08;;;;;;;51.00;37.50;;;;;;;;;;10445015;27;20055;-63
2021/03/12 19:52:06;;;;;;;45.03;32.95;;;;;;;;;;10445900;27;20488;-63
2021/03/12 19:57:04;;;;;;;53.22;39.20;;;;;;;;;;10444338;27;20079;-63
2021/03/12 20:02:02;;;;;;;44.40;33.88;;;;;;;;;;10444153;27;20084;-63
2021/03/12 20:07:00;;;;;;;278.58;162.68;;;;;;;;;;10444364;27;20079;-63
2021/03/12 20:11:58;;;;;;;93.85;62.63;;;;;;;;;;10445211;27;20408;-63
2021/03/12 20:16:56;;;;;;;76.15;51.88;;;;;;;;;;10445016;27;20071;-63
2021/03/12 20:21:55;;;;;;;69.03;52.40;;;;;;;;;;10444651;27;20070;-63
2021/03/12 20:26:53;;;;;;;70.75;54.40;;;;;;;;;;10444487;27;20035;-63
2021/03/12 20:31:50;;;;;;;72.60;53.38;;;;;;;;;;10443557;27;20043;-62
2021/03/12 20:36:51;;;;;;;84.75;69.88;;;;;;;;;;10444061;27;20484;-62
2021/03/12 20:41:48;;;;;;;77.13;52.95;;;;;;;;;;10443079;27;20074;-62
2021/03/12 20:46:46;;;;;;;91.63;63.72;;;;;;;;;;10424163;27;20055;-61
2021/03/12 20:51:43;;;;;;;62.15;44.03;;;;;;;;;;10443360;27;20496;-62
2021/03/12 20:56:42;;;;;;;57.92;44.85;;;;;;;;;;10442158;27;20043;-62
2021/03/12 21:01:39;;;;;;;77.55;51.35;;;;;;;;;;10423781;27;20089;-62
2021/03/12 21:06:37;;;;;;;166.73;106.88;;;;;;;;;;10442112;27;20043;-62
2021/03/12 21:11:34;;;;;;;364.95;190.00;;;;;;;;;;10422370;27;20047;-63
2021/03/12 21:16:33;;;;;;;525.20;292.98;;;;;;;;;;10442493;27;20050;-63
2021/03/12 21:21:30;;;;;;;378.75;183.45;;;;;;;;;;10441439;27;20082;-63
2021/03/12 21:26:28;;;;;;;354.85;166.52;;;;;;;;;;10440626;27;20461;-63
2021/03/12 21:31:25;;;;;;;166.27;95.35;;;;;;;;;;10422504;27;20523;-63
2021/03/12 21:36:24;;;;;;;98.35;58.65;;;;;;;;;;10441201;27;20074;-63
2021/03/12 21:41:22;;;;;;;108.00;68.97;;;;;;;;;;10441118;27;20086;-63
2021/03/12 21:46:19;;;;;;;108.15;62.97;;;;;;;;;;10441008;27;20448;-63
2021/03/12 21:51:17;;;;;;;137.15;83.93;;;;;;;;;;10440587;27;20067;-63
2021/03/12 21:56:16;;;;;;;103.03;61.30;;;;;;;;;;10440049;28;20051;-63
2021/03/12 22:01:13;;;;;;;126.85;68.88;;;;;;;;;;10440944;28;20469;-63
2021/03/12 22:06:10;;;;;;;70.55;43.33;;;;;;;;;;10440550;28;20058;-63
2021/03/12 22:11:08;;;;;;;164.23;79.88;;;;;;;;;;10440937;28;20052;-63
2021/03/12 22:16:06;;;;;;;234.88;109.90;;;;;;;;;;10440674;28;20046;-63
2021/03/12 22:21:04;;;;;;;361.80;152.63;;;;;;;;;;10441398;27;20099;-63
2021/03/12 22:26:01;;;;;;;279.35;119.75;;;;;;;;;;10448976;27;20420;-63
2021/03/12 22:31:13;;;;;;;253.43;113.57;;;;;;;;;;10448222;27;20054;-63
2021/03/12 22:36:11;;;;;;;419.63;158.70;;;;;;;;;;10448144;27;20051;-63
2021/03/12 22:41:08;;;;;;;261.73;124.63;;;;;;;;;;10447199;27;20083;-63
2021/03/12 22:46:05;;;;;;;156.93;79.57;;;;;;;;;;10448394;27;20515;-62
2021/03/12 22:51:04;;;;;;;215.93;103.57;;;;;;;;;;10448195;27;20054;-64
2021/03/12 22:56:01;;;;;;;222.43;98.00;;;;;;;;;;10448026;27;20043;-62
2021/03/12 23:00:58;;;;;;;245.98;119.15;;;;;;;;;;10446839;27;20047;-63
2021/03/12 23:05:56;;;;;;;161.73;87.60;;;;;;;;;;10447522;27;20035;-63
2021/03/12 23:10:55;;;;;;;217.10;100.68;;;;;;;;;;10446357;27;20427;-63
2021/03/12 23:15:53;;;;;;;296.33;130.18;;;;;;;;;;10446481;27;20079;-64
2021/03/12 23:20:52;;;;;;;265.70;125.35;;;;;;;;;;10445857;27;20079;-63
2021/03/12 23:25:50;;;;;;;189.25;87.75;;;;;;;;;;10446351;27;20043;-62
2021/03/12 23:30:49;;;;;;;132.48;65.68;;;;;;;;;;10446305;27;20050;-62
2021/03/12 23:35:47;;;;;;;152.00;70.72;;;;;;;;;;10444269;27;20043;-63
2021/03/12 23:40:45;;;;;;;156.63;66.95;;;;;;;;;;10445231;27;20083;-62
2021/03/12 23:45:42;;;;;;;111.03;49.85;;;;;;;;;;10445442;27;20058;-62
2021/03/12 23:50:43;;;;;;;210.52;87.18;;;;;;;;;;10444739;27;20040;-62
2021/03/12 23:55:41;;;;;;;116.68;56.22;;;;;;;;;;10444914;27;20496;-62
